createdAt,value
2023-03-24T00:00:23.825Z,1.40
2023-03-24T00:02:51.358Z,1.00
2023-03-24T00:05:22.764Z,1.10
2023-03-24T00:07:54.494Z,1.75
2023-03-24T00:10:23.444Z,1.30
2023-03-24T00:12:51.675Z,1.50
2023-03-24T00:15:20.992Z,1.10
2023-03-24T00:17:52.062Z,0.95
2023-03-24T00:20:22.962Z,1.10
2023-03-24T00:22:56.984Z,1.13
2023-03-24T00:25:29.851Z,1.15
2023-03-24T00:27:57.968Z,0.90
2023-03-24T00:30:25.903Z,1.05
2023-03-24T00:32:53.102Z,1.05
2023-03-24T00:35:20.360Z,1.05
2023-03-24T00:37:47.679Z,1.15
2023-03-24T00:40:17.392Z,1.15
2023-03-24T00:42:46.288Z,1.20
2023-03-24T00:45:19.732Z,1.17
2023-03-24T00:47:49.996Z,0.93
2023-03-24T00:50:20.671Z,1.08
2023-03-24T00:52:49.106Z,1.45
2023-03-24T00:55:16.618Z,0.98
2023-03-24T00:57:52.714Z,1.27
2023-03-24T01:00:24.111Z,1.10
2023-03-24T01:02:54.877Z,1.20
2023-03-24T01:05:23.969Z,1.10
2023-03-24T01:07:56.448Z,0.93
2023-03-24T01:10:26.404Z,0.95
2023-03-24T01:12:56.597Z,1.45
2023-03-24T01:15:30.027Z,0.93
2023-03-24T01:17:57.724Z,1.27
2023-03-24T01:20:25.120Z,1.20
2023-03-24T01:22:52.258Z,0.85
2023-03-24T01:25:23.237Z,1.02
2023-03-24T01:27:52.217Z,0.80
2023-03-24T01:30:24.833Z,1.15
2023-03-24T01:32:53.105Z,1.02
2023-03-24T01:35:21.713Z,1.38
2023-03-24T01:37:48.643Z,1.05
2023-03-24T01:40:22.269Z,0.93
2023-03-24T01:42:51.190Z,1.02
2023-03-24T01:46:07.848Z,1.30
2023-03-24T01:48:46.737Z,0.88
2023-03-24T01:51:19.542Z,1.10
2023-03-24T01:53:54.423Z,1.20
2023-03-24T01:56:22.007Z,1.00
2023-03-24T01:58:53.921Z,1.00
2023-03-24T02:01:40.033Z,1.30
2023-03-24T02:04:38.826Z,1.17
2023-03-24T02:07:31.138Z,1.08
2023-03-24T02:09:58.195Z,0.80
2023-03-24T02:12:27.033Z,1.27
2023-03-24T02:14:54.801Z,1.30
2023-03-24T02:17:31.654Z,1.08
2023-03-24T02:20:14.922Z,1.15
2023-03-24T02:22:59.134Z,1.23
2023-03-24T02:25:44.897Z,0.95
2023-03-24T02:28:50.672Z,1.15
2023-03-24T02:31:29.629Z,0.88
2023-03-24T02:34:11.775Z,0.63
2023-03-24T02:36:54.686Z,0.80
2023-03-24T02:39:40.597Z,1.10
2023-03-24T02:42:24.445Z,0.93
2023-03-24T02:45:16.773Z,0.90
2023-03-24T02:48:03.265Z,1.30
2023-03-24T02:50:48.433Z,1.20
2023-03-24T02:53:28.506Z,0.98
2023-03-24T02:56:30.261Z,0.88
2023-03-24T02:59:09.555Z,1.40
2023-03-24T03:01:46.272Z,1.00
2023-03-24T03:04:46.266Z,0.93
2023-03-24T03:07:16.553Z,1.10
2023-03-24T03:10:09.015Z,1.20
2023-03-24T03:12:39.144Z,1.05
2023-03-24T03:15:14.215Z,1.35
2023-03-24T03:17:48.186Z,1.00
2023-03-24T03:20:23.178Z,1.10
2023-03-24T03:23:02.359Z,1.23
2023-03-24T03:25:35.743Z,1.08
2023-03-24T03:28:05.018Z,1.00
2023-03-24T03:30:40.031Z,0.95
2023-03-24T03:33:17.955Z,1.27
2023-03-24T03:36:07.102Z,1.20
2023-03-24T03:38:51.697Z,0.98
2023-03-24T03:41:19.264Z,1.25
2023-03-24T03:43:49.566Z,1.10
2023-03-24T03:46:17.988Z,1.10
2023-03-24T03:48:46.622Z,1.20
2023-03-24T03:51:15.193Z,1.08
2023-03-24T03:53:59.702Z,1.23
2023-03-24T03:56:30.361Z,0.90
2023-03-24T03:59:28.776Z,1.00
2023-03-24T04:01:56.893Z,1.10
2023-03-24T04:05:05.609Z,1.45
2023-03-24T04:08:05.140Z,0.80
2023-03-24T04:11:02.437Z,0.93
2023-03-24T04:13:51.251Z,1.20
2023-03-24T04:16:54.785Z,1.27
2023-03-24T04:19:57.741Z,1.40
2023-03-24T04:22:38.405Z,1.15
2023-03-24T04:25:40.875Z,1.02
2023-03-24T04:28:22.054Z,1.55
2023-03-24T04:31:07.300Z,1.50
2023-03-24T04:33:58.216Z,1.95
2023-03-24T04:36:34.462Z,1.77
2023-03-24T04:39:40.818Z,1.83
2023-03-24T04:42:19.253Z,2.20
2023-03-24T04:44:46.621Z,2.17
2023-03-24T04:47:57.365Z,1.90
2023-03-24T04:50:58.779Z,1.88
2023-03-24T04:53:28.051Z,1.95
2023-03-24T04:56:06.445Z,2.00
2023-03-24T04:58:59.615Z,2.35
2023-03-24T05:01:30.210Z,2.50
2023-03-24T05:04:22.414Z,2.17
2023-03-24T05:06:52.110Z,2.22
2023-03-24T05:09:25.402Z,2.72
2023-03-24T05:11:52.870Z,2.70
2023-03-24T05:14:21.650Z,2.90
2023-03-24T05:16:49.217Z,2.90
2023-03-24T05:19:18.896Z,3.10
2023-03-24T05:21:45.671Z,3.22
2023-03-24T05:24:12.761Z,3.42
2023-03-24T05:26:40.057Z,3.40
2023-03-24T05:29:14.754Z,3.28
2023-03-24T05:31:41.807Z,3.15
2023-03-24T05:34:12.745Z,3.63
2023-03-24T05:36:57.301Z,3.35
2023-03-24T05:39:24.274Z,3.75
2023-03-24T05:42:03.799Z,3.33
2023-03-24T05:44:31.152Z,2.78
2023-03-24T05:47:15.901Z,3.70
2023-03-24T05:49:43.582Z,3.33
2023-03-24T05:52:11.707Z,3.20
2023-03-24T05:54:43.755Z,4.22
2023-03-24T05:57:17.497Z,4.35
2023-03-24T06:00:15.425Z,3.72
2023-03-24T06:02:49.197Z,4.00
2023-03-24T06:05:25.716Z,3.53
2023-03-24T06:07:58.496Z,4.45
2023-03-24T06:10:27.800Z,3.75
2023-03-24T06:12:56.150Z,4.07
2023-03-24T06:15:27.918Z,3.75
2023-03-24T06:18:00.975Z,4.10
2023-03-24T06:20:33.715Z,4.18
2023-03-24T06:23:04.522Z,3.95
2023-03-24T06:25:38.750Z,3.83
2023-03-24T06:28:26.162Z,3.60
2023-03-24T06:30:56.635Z,3.45
2023-03-24T06:33:30.872Z,3.55
2023-03-24T06:36:01.724Z,3.67
2023-03-24T06:38:29.634Z,3.22
2023-03-24T06:41:01.323Z,3.20
2023-03-24T06:43:28.638Z,3.22
2023-03-24T06:45:55.599Z,3.55
2023-03-24T06:48:24.983Z,2.45
2023-03-24T06:50:58.948Z,3.05
2023-03-24T06:53:25.781Z,3.35
2023-03-24T06:55:52.547Z,3.20
2023-03-24T06:58:22.581Z,2.42
2023-03-24T07:01:02.063Z,3.25
2023-03-24T07:03:37.809Z,3.00
2023-03-24T07:06:25.223Z,2.83
2023-03-24T07:08:55.416Z,2.33
2023-03-24T07:11:24.535Z,3.42
2023-03-24T07:13:55.332Z,2.58
2023-03-24T07:18:58.867Z,2.10
2023-03-24T07:21:28.926Z,2.67
2023-03-24T07:23:55.865Z,2.80
2023-03-24T07:26:28.557Z,3.15
2023-03-24T07:29:04.322Z,2.75
2023-03-24T07:31:39.776Z,2.63
2023-03-24T07:34:09.677Z,2.28
2023-03-24T07:36:38.578Z,2.67
2023-03-24T07:39:09.482Z,2.70
2023-03-24T07:41:37.004Z,2.83
2023-03-24T07:44:11.428Z,2.22
2023-03-24T07:46:41.360Z,3.10
2023-03-24T07:49:18.849Z,2.70
2023-03-24T07:51:54.309Z,2.47
2023-03-24T07:54:29.441Z,2.42
2023-03-24T07:56:56.693Z,1.98
2023-03-24T07:59:25.899Z,2.40
2023-03-24T08:01:56.950Z,2.67
2023-03-24T08:04:45.250Z,2.45
2023-03-24T08:07:44.882Z,2.25
2023-03-24T08:10:18.118Z,2.33
2023-03-24T08:12:44.824Z,2.25
2023-03-24T08:15:11.625Z,1.98
2023-03-24T08:17:38.843Z,2.20
2023-03-24T08:20:10.686Z,2.50
2023-03-24T08:22:39.347Z,2.20
2023-03-24T08:25:07.572Z,1.70
2023-03-24T08:27:35.076Z,1.98
2023-03-24T08:30:01.753Z,2.25
2023-03-24T08:32:28.525Z,2.08
2023-03-24T08:34:55.454Z,2.10
2023-03-24T08:37:22.105Z,1.73
2023-03-24T08:39:48.833Z,1.85
2023-03-24T08:42:15.591Z,2.42
2023-03-24T08:44:42.359Z,2.00
2023-03-24T08:47:09.006Z,1.90
2023-03-24T08:49:35.746Z,1.77
2023-03-24T08:52:02.616Z,1.67
2023-03-24T08:54:29.258Z,2.20
2023-03-24T08:56:56.068Z,1.60
2023-03-24T08:59:22.908Z,1.40
2023-03-24T09:01:49.929Z,1.35
2023-03-24T09:04:16.780Z,1.30
2023-03-24T09:06:43.534Z,1.33
2023-03-24T09:09:10.398Z,1.48
2023-03-24T09:11:38.675Z,0.93
2023-03-24T09:14:05.600Z,1.67
2023-03-24T09:16:32.546Z,1.40
2023-03-24T09:18:59.281Z,1.23
2023-03-24T09:21:26.250Z,1.27
2023-03-24T09:23:53.025Z,1.05
2023-03-24T09:26:19.834Z,1.25
2023-03-24T09:28:46.547Z,1.20
2023-03-24T09:31:13.296Z,1.13
2023-03-24T09:33:40.082Z,1.20
2023-03-24T09:36:07.360Z,1.40
2023-03-24T09:38:34.962Z,1.20
2023-03-24T09:41:03.195Z,2.05
2023-03-24T09:43:46.602Z,2.22
2023-03-24T09:46:30.509Z,1.33
2023-03-24T09:48:57.921Z,1.17
2023-03-24T09:51:38.416Z,1.17
2023-03-24T09:54:08.201Z,0.82
2023-03-24T09:56:38.482Z,0.95
2023-03-24T09:59:20.209Z,1.10
2023-03-24T10:01:47.792Z,1.02
2023-03-24T10:04:21.467Z,1.30
2023-03-24T10:06:53.233Z,1.20
2023-03-24T10:09:30.981Z,1.40
2023-03-24T10:12:12.560Z,1.10
2023-03-24T10:14:58.515Z,1.63
2023-03-24T10:17:37.125Z,1.63
2023-03-24T10:20:24.954Z,1.50
2023-03-24T10:22:51.825Z,1.60
2023-03-24T10:25:35.904Z,1.77
2023-03-24T10:28:17.636Z,2.50
2023-03-24T10:30:46.886Z,2.33
2023-03-24T10:33:15.413Z,1.70
2023-03-24T10:35:55.481Z,1.52
2023-03-24T10:38:23.149Z,1.30
2023-03-24T10:40:50.703Z,1.50
2023-03-24T10:43:18.935Z,1.48
2023-03-24T10:45:49.364Z,1.35
2023-03-24T10:48:39.840Z,1.47
2023-03-24T10:51:07.834Z,1.80
2023-03-24T10:53:34.684Z,1.70
2023-03-24T10:56:02.001Z,1.77
2023-03-24T10:58:40.884Z,1.77
2023-03-24T11:01:30.249Z,2.15
2023-03-24T11:04:03.517Z,2.47
2023-03-24T11:06:31.175Z,1.92
2023-03-24T11:09:21.318Z,2.08
2023-03-24T11:11:50.653Z,2.10
2023-03-24T11:14:26.378Z,2.20
2023-03-24T11:17:02.415Z,2.28
2023-03-24T11:19:32.274Z,2.15
2023-03-24T11:22:03.845Z,1.98
2023-03-24T11:24:34.940Z,3.00
2023-03-24T11:27:03.119Z,2.65
2023-03-24T11:29:38.374Z,2.28
2023-03-24T11:32:13.853Z,2.40
2023-03-24T11:34:47.009Z,2.35
2023-03-24T11:37:30.588Z,2.20
2023-03-24T11:40:12.303Z,2.40
2023-03-24T11:45:28.565Z,1.73
2023-03-24T11:47:59.282Z,1.92
2023-03-24T11:50:38.680Z,1.40
2023-03-24T11:53:23.743Z,1.88
2023-03-24T11:56:05.211Z,1.38
2023-03-24T11:58:48.753Z,1.40
2023-03-24T12:01:27.350Z,0.88
2023-03-24T12:04:18.222Z,0.65
2023-03-24T12:07:20.307Z,0.50
2023-03-24T12:12:55.755Z,0.60
2023-03-24T12:15:42.885Z,0.30
2023-03-24T12:18:31.551Z,0.40
2023-03-24T12:21:16.637Z,0.68
2023-03-24T12:24:06.040Z,0.60
2023-03-24T12:26:34.393Z,0.60
2023-03-24T12:29:27.781Z,0.50
2023-03-24T12:32:09.214Z,0.60
2023-03-24T12:35:18.976Z,0.40
2023-03-24T12:38:02.528Z,0.50
2023-03-24T12:40:32.828Z,0.70
2023-03-24T12:43:17.976Z,0.60
2023-03-24T12:45:53.318Z,0.68
2023-03-24T12:48:43.698Z,0.50
2023-03-24T12:51:38.719Z,0.60
2023-03-24T12:54:28.022Z,0.30
2023-03-24T12:57:17.193Z,0.50
2023-03-24T13:00:01.506Z,0.47
2023-03-24T13:02:35.287Z,0.40
2023-03-24T13:05:08.588Z,0.45
2023-03-24T13:07:43.739Z,0.65
2023-03-24T13:10:20.275Z,0.55
2023-03-24T13:13:13.105Z,0.60
2023-03-24T13:15:55.972Z,0.60
2023-03-24T13:18:55.623Z,0.75
2023-03-24T13:21:29.633Z,0.40
2023-03-24T13:24:15.148Z,0.40
2023-03-24T13:27:11.721Z,0.52
2023-03-24T13:29:49.011Z,0.90
2023-03-24T13:32:23.613Z,0.60
2023-03-24T13:35:10.067Z,0.63
2023-03-24T13:37:41.315Z,0.60
2023-03-24T13:40:19.693Z,0.73
2023-03-24T13:42:52.763Z,0.50
2023-03-24T13:45:47.827Z,0.65
2023-03-24T13:48:21.175Z,0.73
2023-03-24T13:50:59.892Z,0.68
2023-03-24T13:53:43.511Z,0.60
2023-03-24T13:56:21.034Z,0.70
2023-03-24T13:58:58.402Z,0.50
2023-03-24T14:01:39.238Z,0.57
2023-03-24T14:04:28.697Z,0.70
2023-03-24T14:06:59.799Z,0.40
2023-03-24T14:09:29.405Z,0.55
2023-03-24T14:11:56.186Z,0.40
2023-03-24T14:14:25.542Z,0.60
2023-03-24T14:17:15.990Z,0.60
2023-03-24T14:20:07.270Z,0.60
2023-03-24T14:22:36.272Z,0.70
2023-03-24T14:25:19.433Z,0.88
2023-03-24T14:28:21.299Z,0.50
2023-03-24T14:31:02.094Z,0.50
2023-03-24T14:33:29.852Z,0.47
2023-03-24T14:36:04.769Z,0.60
2023-03-24T14:38:37.576Z,0.60
2023-03-24T14:41:13.785Z,0.50
2023-03-24T14:43:40.719Z,0.70
2023-03-24T14:46:22.559Z,0.68
2023-03-24T14:48:56.263Z,0.55
2023-03-24T14:51:36.381Z,0.70
2023-03-24T14:54:07.360Z,0.60
2023-03-24T14:56:40.279Z,0.70
2023-03-24T14:59:23.970Z,0.60
2023-03-24T15:01:54.305Z,0.50
2023-03-24T15:04:21.781Z,1.15
2023-03-24T15:06:49.030Z,0.60
2023-03-24T15:09:17.236Z,0.57
2023-03-24T15:11:46.258Z,0.63
2023-03-24T15:14:23.351Z,0.68
2023-03-24T15:17:02.095Z,0.75
2023-03-24T15:19:31.241Z,0.70
2023-03-24T15:22:03.877Z,0.70
2023-03-24T15:24:36.596Z,0.88
2023-03-24T15:27:08.918Z,0.90
2023-03-24T15:29:38.181Z,0.70
2023-03-24T15:32:06.335Z,0.80
2023-03-24T15:34:40.111Z,0.80
2023-03-24T15:37:20.260Z,0.85
2023-03-24T15:39:59.202Z,0.50
2023-03-24T15:42:33.166Z,0.60
2023-03-24T15:45:11.110Z,0.60
2023-03-24T15:47:41.558Z,0.55
2023-03-24T15:50:30.511Z,0.60
2023-03-24T15:53:02.760Z,0.40
2023-03-24T15:55:35.512Z,1.00
2023-03-24T15:58:22.836Z,0.70
2023-03-24T16:00:54.609Z,0.50
2023-03-24T16:03:26.376Z,0.50
2023-03-24T16:05:55.875Z,0.52
2023-03-24T16:08:38.749Z,0.50
2023-03-24T16:11:10.898Z,2.00
2023-03-24T16:13:43.170Z,0.82
2023-03-24T16:16:16.273Z,0.60
2023-03-24T16:18:48.513Z,0.70
2023-03-24T16:21:19.679Z,0.75
2023-03-24T16:23:47.106Z,0.52
2023-03-24T16:26:18.888Z,0.35
2023-03-24T16:31:24.660Z,0.40
2023-03-24T16:33:52.823Z,0.57
2023-03-24T16:36:22.016Z,0.75
2023-03-24T16:38:50.317Z,0.70
2023-03-24T16:41:17.232Z,0.70
2023-03-24T16:43:45.010Z,0.43
2023-03-24T16:46:18.563Z,0.70
2023-03-24T16:48:45.270Z,0.70
2023-03-24T16:51:15.377Z,0.60
2023-03-24T16:53:43.119Z,0.60
2023-03-24T16:56:12.796Z,0.70
2023-03-24T16:58:39.851Z,0.60
2023-03-24T17:01:33.802Z,1.00
2023-03-24T17:04:03.842Z,0.60
2023-03-24T17:06:32.446Z,0.60
2023-03-24T17:08:59.857Z,0.60
2023-03-24T17:11:38.651Z,0.90
2023-03-24T17:14:08.542Z,1.10
2023-03-24T17:16:38.249Z,0.95
2023-03-24T17:19:08.150Z,0.90
2023-03-24T17:21:38.333Z,0.75
2023-03-24T17:24:10.903Z,1.00
2023-03-24T17:26:38.296Z,0.77
2023-03-24T17:29:05.039Z,0.70
2023-03-24T17:31:32.544Z,0.63
2023-03-24T17:34:03.741Z,0.70
2023-03-24T17:36:36.402Z,0.68
2023-03-24T17:39:04.980Z,0.60
2023-03-24T17:41:32.066Z,0.90
2023-03-24T17:43:58.966Z,0.60
2023-03-24T17:46:26.088Z,0.45
2023-03-24T17:48:53.216Z,0.70
2023-03-24T17:51:19.920Z,0.75
2023-03-24T17:53:46.721Z,1.10
2023-03-24T17:56:13.628Z,0.60
2023-03-24T17:58:41.676Z,0.50
2023-03-24T18:01:09.281Z,0.70
2023-03-24T18:03:38.038Z,0.70
2023-03-24T18:06:10.842Z,0.70
2023-03-24T18:08:38.878Z,0.70
2023-03-24T18:11:08.130Z,0.85
2023-03-24T18:13:34.934Z,0.80
2023-03-24T18:16:13.232Z,1.05
2023-03-24T18:18:47.107Z,0.75
2023-03-24T18:21:14.200Z,1.15
2023-03-24T18:23:42.259Z,0.73
2023-03-24T18:26:09.298Z,0.60
2023-03-24T18:28:37.725Z,1.00
2023-03-24T18:31:13.269Z,1.05
2023-03-24T18:33:42.857Z,0.85
2023-03-24T18:36:12.505Z,0.90
2023-03-24T18:38:39.892Z,0.80
2023-03-24T18:41:09.687Z,1.10
2023-03-24T18:43:40.947Z,0.75
2023-03-24T18:46:09.703Z,0.90
2023-03-24T18:48:37.785Z,0.40
2023-03-24T18:51:05.902Z,0.80
2023-03-24T18:53:34.478Z,1.25
2023-03-24T18:56:06.609Z,0.57
2023-03-24T18:58:33.925Z,0.80
2023-03-24T19:01:09.451Z,0.60
2023-03-24T19:03:38.675Z,1.10
2023-03-24T19:06:07.221Z,0.90
2023-03-24T19:08:44.590Z,0.73
2023-03-24T19:11:12.968Z,1.00
2023-03-24T19:13:41.540Z,0.73
2023-03-24T19:16:10.272Z,0.90
2023-03-24T19:18:37.853Z,2.47
2023-03-24T19:21:06.774Z,1.85
2023-03-24T19:23:34.244Z,1.63
2023-03-24T19:26:01.637Z,1.20
2023-03-24T19:28:30.853Z,1.33
2023-03-24T19:30:59.454Z,0.98
2023-03-24T19:33:29.454Z,1.10
2023-03-24T19:35:56.659Z,1.20
2023-03-24T19:38:23.941Z,1.00
2023-03-24T19:40:54.141Z,0.90
2023-03-24T19:43:22.545Z,1.15
2023-03-24T19:45:53.741Z,0.95
2023-03-24T19:48:21.681Z,1.02
2023-03-24T19:50:51.914Z,0.90
2023-03-24T19:53:18.851Z,1.10
2023-03-24T19:55:46.292Z,1.17
2023-03-24T19:58:13.465Z,0.73
2023-03-24T20:00:42.786Z,1.02
2023-03-24T20:03:10.213Z,0.82
2023-03-24T20:05:40.311Z,0.90
2023-03-24T20:08:07.107Z,1.17
2023-03-24T20:10:35.684Z,1.10
2023-03-24T20:13:03.064Z,0.93
2023-03-24T20:15:29.805Z,1.05
2023-03-24T20:17:56.583Z,0.90
2023-03-24T20:20:23.382Z,1.00
2023-03-24T20:22:50.266Z,0.70
2023-03-24T20:25:18.900Z,0.88
2023-03-24T20:27:47.378Z,0.60
2023-03-24T20:30:17.150Z,0.60
2023-03-24T20:32:44.596Z,0.80
2023-03-24T20:35:12.183Z,0.70
2023-03-24T20:37:39.081Z,0.60
2023-03-24T20:40:09.476Z,0.95
2023-03-24T20:42:37.515Z,0.70
2023-03-24T20:45:06.083Z,0.88
2023-03-24T20:47:32.981Z,0.40
2023-03-24T20:50:00.808Z,0.63
2023-03-24T20:52:28.515Z,0.30
2023-03-24T20:54:55.268Z,0.50
2023-03-24T20:57:21.984Z,0.40
2023-03-24T20:59:48.842Z,0.30
2023-03-24T21:02:15.941Z,0.40
2023-03-24T21:04:43.193Z,0.63
2023-03-24T21:07:10.236Z,0.70
2023-03-24T21:09:37.533Z,0.60
2023-03-24T21:12:06.432Z,0.63
2023-03-24T21:14:33.715Z,1.00
2023-03-24T21:17:01.267Z,0.60
2023-03-24T21:19:28.080Z,0.80
2023-03-24T21:21:56.075Z,0.85
2023-03-24T21:24:24.124Z,0.73
2023-03-24T21:26:53.732Z,1.08
2023-03-24T21:29:22.864Z,0.80
2023-03-24T21:31:49.860Z,0.60
2023-03-24T21:34:17.114Z,0.65
2023-03-24T21:36:43.906Z,1.08
2023-03-24T21:39:11.981Z,0.75
2023-03-24T21:41:39.407Z,0.85
2023-03-24T21:44:09.759Z,0.82
2023-03-24T21:46:37.013Z,0.85
2023-03-24T21:49:04.802Z,0.60
2023-03-24T21:51:42.725Z,0.65
2023-03-24T21:54:09.667Z,0.77
2023-03-24T21:56:37.851Z,1.08
2023-03-24T21:59:04.855Z,0.80
2023-03-24T22:01:33.874Z,0.75
2023-03-24T22:04:00.902Z,1.00
2023-03-24T22:06:28.672Z,0.80
2023-03-24T22:08:58.259Z,1.33
2023-03-24T22:11:25.683Z,1.27
2023-03-24T22:13:52.539Z,1.30
2023-03-24T22:16:19.184Z,1.20
2023-03-24T22:18:47.128Z,1.38
2023-03-24T22:21:14.292Z,0.80
2023-03-24T22:23:43.026Z,1.00
2023-03-24T22:26:13.622Z,1.05
2023-03-24T22:28:42.048Z,1.48
2023-03-24T22:31:16.834Z,1.42
2023-03-24T22:33:44.798Z,0.98
2023-03-24T22:36:12.266Z,0.90
2023-03-24T22:38:39.833Z,1.25
2023-03-24T22:41:10.282Z,0.90
2023-03-24T22:43:39.443Z,1.27
2023-03-24T22:46:06.649Z,1.10
2023-03-24T22:48:33.572Z,1.02
2023-03-24T22:51:00.299Z,1.10
2023-03-24T22:53:27.021Z,0.80
2023-03-24T22:55:54.533Z,0.88
2023-03-24T22:58:22.179Z,1.02
2023-03-24T23:00:53.332Z,0.95
2023-03-24T23:03:20.419Z,1.02
2023-03-24T23:05:47.516Z,0.60
2023-03-24T23:08:15.607Z,0.80
2023-03-24T23:10:44.214Z,0.60
2023-03-24T23:13:12.528Z,0.70
2023-03-24T23:15:39.858Z,0.63
2023-03-24T23:18:06.934Z,0.50
2023-03-24T23:20:34.328Z,0.77
2023-03-24T23:23:01.443Z,1.20
2023-03-24T23:25:31.054Z,0.55
2023-03-24T23:27:58.438Z,0.73
2023-03-24T23:30:25.628Z,0.63
2023-03-24T23:32:52.864Z,0.35
2023-03-24T23:35:22.169Z,1.00
2023-03-24T23:37:49.458Z,0.60
2023-03-24T23:40:19.353Z,0.50
2023-03-24T23:42:47.993Z,0.40
2023-03-24T23:45:18.094Z,0.55
2023-03-24T23:47:49.581Z,0.70
2023-03-24T23:50:17.898Z,0.63
2023-03-24T23:52:44.790Z,0.68
2023-03-24T23:55:15.996Z,0.35
2023-03-24T23:57:43.422Z,0.38
